Auburn, Georgia
Current Conditions -  °F | °C
As of 9:45 AM on Tuesday 21 Oct 2014 (Local Time) from KLZU Reporting Station
Clear Clear  
Wind Chill: 15°   Ceiling: Unl
Heat Index: 15°   Visibility: 10mi
Dew Point:   Wind: 6mph
Humidity: 63%   Direction: 290°WNW
Pressure: 30.03"   Gusts: NA
Location:  34.01°N, 83.83°W
Report Text: KLZU 211345Z 29005KT 10SM CLR 15/08 A3003 RMK ATIS E RWY 25 SU
Loading
Personal Weather Stations






























Interactive Weather Map
Tropical Storm Tracking
New forecast layout! Learn more

10-Day Weather Forecast

Advertisements
Track Severe Weather on mobile